createdAt,value
2023-04-22T00:00:15.872Z,52.06
2023-04-22T00:02:44.475Z,52.16
2023-04-22T00:05:15.633Z,52.86
2023-04-22T00:07:45.221Z,53.62
2023-04-22T00:10:14.817Z,54.00
2023-04-22T00:12:42.665Z,54.60
2023-04-22T00:15:11.606Z,54.75
2023-04-22T00:17:40.176Z,54.60
2023-04-22T00:20:10.825Z,54.42
2023-04-22T00:22:38.868Z,53.85
2023-04-22T00:25:07.694Z,54.07
2023-04-22T00:27:36.893Z,53.38
2023-04-22T00:30:05.456Z,53.11
2023-04-22T00:32:33.551Z,53.89
2023-04-22T00:35:01.497Z,52.95
2023-04-22T00:37:29.638Z,52.96
2023-04-22T00:39:58.014Z,52.60
2023-04-22T00:42:27.200Z,52.41
2023-04-22T00:44:56.648Z,52.47
2023-04-22T00:47:26.888Z,52.58
2023-04-22T00:49:55.591Z,52.89
2023-04-22T00:52:23.525Z,52.60
2023-04-22T00:54:52.655Z,52.43
2023-04-22T00:57:20.932Z,53.27
2023-04-22T00:59:49.114Z,52.81
2023-04-22T01:02:19.242Z,52.69
2023-04-22T01:04:47.981Z,51.64
2023-04-22T01:07:15.906Z,51.69
2023-04-22T01:09:44.372Z,51.74
2023-04-22T01:12:12.545Z,51.48
2023-04-22T01:14:41.439Z,51.19
2023-04-22T01:17:12.077Z,51.41
2023-04-22T01:19:42.621Z,52.02
2023-04-22T01:22:13.979Z,51.88
2023-04-22T01:24:43.363Z,52.06
2023-04-22T01:27:12.042Z,52.85
2023-04-22T01:29:40.196Z,52.71
2023-04-22T01:32:08.303Z,52.21
2023-04-22T01:34:36.224Z,52.29
2023-04-22T01:37:04.142Z,52.46
2023-04-22T01:39:32.268Z,52.34
2023-04-22T01:42:02.166Z,51.90
2023-04-22T01:44:30.234Z,51.72
2023-04-22T01:46:58.159Z,51.90
2023-04-22T01:49:26.036Z,52.28
2023-04-22T01:51:53.934Z,52.27
2023-04-22T01:54:21.998Z,52.35
2023-04-22T01:56:52.827Z,52.07
2023-04-22T01:59:22.535Z,51.64
2023-04-22T02:01:51.539Z,52.80
2023-04-22T02:04:20.086Z,53.19
2023-04-22T02:06:48.049Z,52.26
2023-04-22T02:09:15.972Z,52.38
2023-04-22T02:11:43.822Z,54.08
2023-04-22T02:14:11.783Z,52.65
2023-04-22T02:16:41.817Z,52.89
2023-04-22T02:19:10.076Z,53.06
2023-04-22T02:21:38.091Z,53.20
2023-04-22T02:24:06.694Z,52.14
2023-04-22T02:26:34.588Z,52.44
2023-04-22T02:29:02.700Z,52.44
2023-04-22T02:31:30.701Z,52.54
2023-04-22T02:34:00.379Z,53.30
2023-04-22T02:36:28.812Z,53.10
2023-04-22T02:38:56.965Z,52.51
2023-04-22T02:41:25.241Z,52.50
2023-04-22T02:43:53.421Z,52.24
2023-04-22T02:46:21.474Z,52.39
2023-04-22T02:48:49.759Z,52.23
2023-04-22T02:51:19.407Z,51.59
2023-04-22T02:53:47.410Z,51.88
2023-04-22T02:56:15.424Z,51.30
2023-04-22T02:58:43.368Z,52.07
2023-04-22T03:01:11.781Z,52.27
2023-04-22T03:03:40.175Z,51.76
2023-04-22T03:06:10.847Z,52.13
2023-04-22T03:08:40.103Z,53.05
2023-04-22T03:11:08.564Z,52.74
2023-04-22T03:13:36.479Z,53.08
2023-04-22T03:16:04.390Z,53.09
2023-04-22T03:18:33.314Z,53.14
2023-04-22T03:21:01.241Z,53.60
2023-04-22T03:23:29.249Z,53.58
2023-04-22T03:25:58.487Z,53.49
2023-04-22T03:28:26.451Z,53.93
2023-04-22T03:30:55.133Z,53.32
2023-04-22T03:33:23.534Z,53.57
2023-04-22T03:35:56.810Z,53.35
2023-04-22T03:38:25.768Z,53.76
2023-04-22T03:40:53.989Z,53.63
2023-04-22T03:43:33.527Z,53.14
2023-04-22T03:46:08.147Z,53.86
2023-04-22T03:48:39.308Z,53.05
2023-04-22T03:51:12.808Z,53.46
2023-04-22T03:53:42.153Z,53.19
2023-04-22T03:56:13.131Z,53.75
2023-04-22T03:58:47.058Z,53.24
2023-04-22T04:01:14.948Z,53.20
2023-04-22T04:03:46.383Z,53.05
2023-04-22T04:06:16.186Z,53.31
2023-04-22T04:08:44.066Z,52.46
2023-04-22T04:11:12.160Z,52.32
2023-04-22T04:13:40.146Z,52.92
2023-04-22T04:16:18.954Z,52.44
2023-04-22T04:18:52.260Z,52.96
2023-04-22T04:21:22.887Z,52.67
2023-04-22T04:23:53.563Z,52.20
2023-04-22T04:26:27.539Z,52.03
2023-04-22T04:29:02.115Z,52.23
2023-04-22T04:31:31.546Z,52.65
2023-04-22T04:34:01.056Z,52.38
2023-04-22T04:36:29.472Z,51.95
2023-04-22T04:39:05.620Z,53.31
2023-04-22T04:41:34.072Z,53.19
2023-04-22T04:44:03.251Z,53.79
2023-04-22T04:46:37.714Z,53.65
2023-04-22T04:49:06.002Z,53.50
2023-04-22T04:51:41.267Z,53.04
2023-04-22T04:54:09.440Z,52.32
2023-04-22T04:56:40.674Z,53.02
2023-04-22T04:59:10.541Z,52.63
2023-04-22T05:01:41.440Z,52.54
2023-04-22T05:04:13.022Z,52.34
2023-04-22T05:06:43.074Z,52.20
2023-04-22T05:09:11.178Z,52.64
2023-04-22T05:11:39.067Z,52.58
2023-04-22T05:14:13.736Z,52.24
2023-04-22T05:16:44.958Z,52.54
2023-04-22T05:19:12.947Z,51.76
2023-04-22T05:21:40.912Z,52.29
2023-04-22T05:24:09.004Z,52.65
2023-04-22T05:26:37.281Z,52.24
2023-04-22T05:29:11.161Z,52.36
2023-04-22T05:31:39.256Z,52.06
2023-04-22T05:34:09.649Z,51.92
2023-04-22T05:36:38.706Z,51.64
2023-04-22T05:39:07.022Z,50.65
2023-04-22T05:41:35.970Z,51.34
2023-04-22T05:44:08.122Z,51.28
2023-04-22T05:46:36.291Z,51.13
2023-04-22T05:49:04.421Z,50.63
2023-04-22T05:51:53.636Z,51.54
2023-04-22T05:54:25.150Z,51.25
2023-04-22T05:56:53.082Z,50.55
2023-04-22T05:59:21.832Z,51.29
2023-04-22T06:01:50.550Z,51.87
2023-04-22T06:04:21.439Z,51.08
2023-04-22T06:06:49.866Z,51.28
2023-04-22T06:09:19.164Z,51.38
2023-04-22T06:11:47.088Z,51.60
2023-04-22T06:14:15.926Z,51.60
2023-04-22T06:16:45.592Z,51.43
2023-04-22T06:19:13.736Z,52.32
2023-04-22T06:21:42.560Z,52.33
2023-04-22T06:24:11.011Z,52.07
2023-04-22T06:26:40.530Z,51.69
2023-04-22T06:29:08.889Z,51.68
2023-04-22T06:31:40.289Z,51.79
2023-04-22T06:34:08.177Z,51.52
2023-04-22T06:36:38.403Z,51.99
2023-04-22T06:39:07.649Z,51.75
2023-04-22T06:41:50.227Z,51.11
2023-04-22T06:44:47.663Z,51.58
2023-04-22T06:47:36.413Z,51.45
2023-04-22T06:50:11.188Z,51.21
2023-04-22T06:52:48.759Z,50.89
2023-04-22T06:55:16.660Z,50.75
2023-04-22T06:57:46.162Z,50.72
2023-04-22T07:00:15.183Z,50.78
2023-04-22T07:02:43.377Z,50.37
2023-04-22T07:05:11.396Z,50.58
2023-04-22T07:07:40.065Z,50.40
2023-04-22T07:10:10.711Z,50.00
2023-04-22T07:12:46.462Z,50.16
2023-04-22T07:15:14.473Z,49.84
2023-04-22T07:17:42.380Z,49.76
2023-04-22T07:20:11.538Z,49.43
2023-04-22T07:22:39.311Z,49.59
2023-04-22T07:25:08.264Z,49.30
2023-04-22T07:27:37.142Z,49.03
2023-04-22T07:30:08.415Z,48.44
2023-04-22T07:32:36.259Z,48.62
2023-04-22T07:35:04.190Z,48.38
2023-04-22T07:37:32.150Z,48.36
2023-04-22T07:40:00.045Z,48.11
2023-04-22T07:42:27.937Z,48.09
2023-04-22T07:44:55.743Z,47.98
2023-04-22T07:47:25.019Z,47.91
2023-04-22T07:49:52.944Z,47.86
2023-04-22T07:52:21.055Z,47.31
2023-04-22T07:54:48.916Z,47.13
2023-04-22T07:57:16.895Z,46.93
2023-04-22T07:59:44.827Z,45.98
2023-04-22T08:02:12.782Z,45.48
2023-04-22T08:04:42.154Z,45.10
2023-04-22T08:07:29.815Z,44.51
2023-04-22T08:09:58.610Z,44.30
2023-04-22T08:12:26.445Z,44.18
2023-04-22T08:14:54.364Z,44.03
2023-04-22T08:17:22.876Z,44.24
2023-04-22T08:19:52.187Z,44.25
2023-04-22T08:22:20.133Z,44.09
2023-04-22T08:24:48.013Z,44.17
2023-04-22T08:27:15.929Z,44.29
2023-04-22T08:29:44.046Z,43.71
2023-04-22T08:32:12.097Z,43.01
2023-04-22T08:34:40.359Z,43.07
2023-04-22T08:37:10.310Z,42.72
2023-04-22T08:39:38.653Z,42.79
2023-04-22T08:42:06.824Z,42.64
2023-04-22T08:44:36.349Z,43.38
2023-04-22T08:47:04.842Z,44.04
2023-04-22T08:49:33.048Z,43.81
2023-04-22T08:52:00.869Z,43.83
2023-04-22T08:54:30.112Z,44.19
2023-04-22T08:56:58.706Z,44.35
2023-04-22T08:59:26.965Z,44.86
2023-04-22T09:01:56.912Z,45.32
2023-04-22T09:04:25.722Z,45.43
2023-04-22T09:06:53.609Z,44.97
2023-04-22T09:09:22.076Z,44.98
2023-04-22T09:11:51.536Z,45.10
2023-04-22T09:14:20.376Z,44.95
2023-04-22T09:16:49.586Z,45.36
2023-04-22T09:19:17.624Z,44.96
2023-04-22T09:21:49.109Z,44.83
2023-04-22T09:24:17.938Z,44.25
2023-04-22T09:26:45.825Z,43.81
2023-04-22T09:29:16.916Z,42.92
2023-04-22T09:31:49.782Z,42.27
2023-04-22T09:34:17.844Z,41.49
2023-04-22T09:36:46.766Z,41.56
2023-04-22T09:39:14.918Z,42.13
2023-04-22T09:41:42.926Z,41.33
2023-04-22T09:44:12.748Z,40.67
2023-04-22T09:46:43.864Z,40.95
2023-04-22T09:49:12.287Z,41.52
2023-04-22T09:51:42.290Z,41.51
2023-04-22T09:54:12.223Z,41.49
2023-04-22T09:56:49.313Z,42.23
2023-04-22T09:59:22.661Z,41.73
2023-04-22T10:01:54.505Z,41.70
2023-04-22T10:04:23.571Z,41.88
2023-04-22T10:06:52.120Z,41.18
2023-04-22T10:09:21.979Z,41.87
2023-04-22T10:11:51.802Z,41.78
2023-04-22T10:14:19.768Z,41.46
2023-04-22T10:16:48.827Z,40.83
2023-04-22T10:19:21.885Z,41.14
2023-04-22T10:21:53.487Z,41.75
2023-04-22T10:24:21.774Z,42.79
2023-04-22T10:26:52.257Z,42.40
2023-04-22T10:29:22.685Z,40.89
2023-04-22T10:31:58.242Z,41.19
2023-04-22T10:34:27.662Z,42.01
2023-04-22T10:37:00.889Z,42.50
2023-04-22T10:39:30.142Z,42.46
2023-04-22T10:42:06.390Z,42.27
2023-04-22T10:44:48.624Z,41.86
2023-04-22T10:47:27.283Z,42.02
2023-04-22T10:52:52.173Z,41.23
2023-04-22T10:55:21.345Z,41.11
2023-04-22T10:57:51.009Z,40.93
2023-04-22T11:00:52.341Z,41.10
2023-04-22T11:03:27.171Z,40.72
2023-04-22T11:06:17.053Z,41.06
2023-04-22T11:08:47.687Z,40.11
2023-04-22T11:11:18.508Z,39.98
2023-04-22T11:13:50.484Z,40.34
2023-04-22T11:16:22.471Z,40.07
2023-04-22T11:18:50.907Z,39.65
2023-04-22T11:21:19.454Z,39.35
2023-04-22T11:23:53.213Z,39.00
2023-04-22T11:26:34.727Z,38.98
2023-04-22T11:29:02.786Z,38.11
2023-04-22T11:31:30.847Z,38.18
2023-04-22T11:34:00.174Z,38.51
2023-04-22T11:36:28.921Z,38.58
2023-04-22T11:38:58.388Z,38.87
2023-04-22T11:41:26.436Z,38.50
2023-04-22T11:43:55.536Z,37.62
2023-04-22T11:46:30.302Z,37.72
2023-04-22T11:49:12.867Z,37.43
2023-04-22T11:51:53.498Z,37.33
2023-04-22T11:54:32.501Z,36.54
2023-04-22T11:57:03.294Z,35.94
2023-04-22T11:59:31.287Z,35.91
2023-04-22T12:01:59.125Z,36.45
2023-04-22T12:04:27.062Z,36.76
2023-04-22T12:06:55.151Z,36.70
2023-04-22T12:09:25.734Z,36.57
2023-04-22T12:11:54.991Z,35.87
2023-04-22T12:14:22.983Z,35.75
2023-04-22T12:16:51.765Z,35.90
2023-04-22T12:19:26.805Z,35.64
2023-04-22T12:21:56.907Z,35.41
2023-04-22T12:24:29.114Z,34.91
2023-04-22T12:26:58.592Z,33.68
2023-04-22T12:29:32.817Z,33.15
2023-04-22T12:32:00.797Z,33.66
2023-04-22T12:34:28.604Z,34.42
2023-04-22T12:36:56.551Z,34.63
2023-04-22T12:39:24.446Z,34.64
2023-04-22T12:41:52.315Z,34.69
2023-04-22T12:44:23.171Z,33.89
2023-04-22T12:46:52.591Z,33.03
2023-04-22T12:49:20.509Z,33.15
2023-04-22T12:51:48.442Z,33.05
2023-04-22T12:54:16.470Z,33.28
2023-04-22T12:56:46.100Z,33.06
2023-04-22T12:59:14.293Z,32.54
2023-04-22T13:01:43.592Z,32.84
2023-04-22T13:04:11.647Z,32.93
2023-04-22T13:06:40.092Z,33.26
2023-04-22T13:09:08.996Z,32.80
2023-04-22T13:11:38.026Z,33.22
2023-04-22T13:14:05.921Z,31.90
2023-04-22T13:16:33.842Z,31.48
2023-04-22T13:19:03.293Z,31.49
2023-04-22T13:21:31.929Z,31.46
2023-04-22T13:24:00.034Z,31.26
2023-04-22T13:26:28.002Z,31.15
2023-04-22T13:28:55.974Z,30.48
2023-04-22T13:31:23.862Z,30.74
2023-04-22T13:33:51.776Z,30.77
2023-04-22T13:36:21.005Z,31.02
2023-04-22T13:38:48.908Z,30.93
2023-04-22T13:41:16.868Z,30.99
2023-04-22T13:43:44.781Z,30.55
2023-04-22T13:46:12.711Z,30.49
2023-04-22T13:48:40.795Z,30.49
2023-04-22T13:51:08.802Z,30.46
2023-04-22T13:53:38.156Z,30.68
2023-04-22T13:56:06.280Z,31.23
2023-04-22T13:58:34.552Z,30.91
2023-04-22T14:01:02.422Z,30.99
2023-04-22T14:03:31.287Z,30.24
2023-04-22T14:06:00.948Z,29.87
2023-04-22T14:08:28.878Z,29.39
2023-04-22T14:10:59.308Z,29.21
2023-04-22T14:13:27.750Z,28.69
2023-04-22T14:15:56.047Z,28.52
2023-04-22T14:18:24.248Z,28.30
2023-04-22T14:20:53.031Z,27.86
2023-04-22T14:23:20.993Z,27.81
2023-04-22T14:25:49.895Z,28.15
2023-04-22T14:28:19.199Z,27.61
2023-04-22T14:30:47.212Z,27.75
2023-04-22T14:33:15.204Z,27.78
2023-04-22T14:35:43.409Z,27.45
2023-04-22T14:38:12.410Z,27.71
2023-04-22T14:40:40.421Z,27.11
2023-04-22T14:43:08.601Z,26.43
2023-04-22T14:45:37.892Z,26.56
2023-04-22T14:48:05.926Z,26.19
2023-04-22T14:50:34.128Z,26.38
2023-04-22T14:53:04.421Z,26.73
2023-04-22T14:55:32.445Z,26.66
2023-04-22T14:58:00.678Z,26.69
2023-04-22T15:00:29.571Z,26.77
2023-04-22T15:02:59.017Z,26.47
2023-04-22T15:05:26.933Z,26.54
2023-04-22T15:07:54.794Z,26.94
2023-04-22T15:10:22.798Z,26.68
2023-04-22T15:12:50.784Z,27.42
2023-04-22T15:15:18.778Z,26.92
2023-04-22T15:17:46.979Z,26.92
2023-04-22T15:20:16.299Z,27.05
2023-04-22T15:22:44.988Z,27.00
2023-04-22T15:25:12.932Z,26.93
2023-04-22T15:27:41.121Z,26.99
2023-04-22T15:30:10.907Z,26.56
2023-04-22T15:32:39.972Z,26.66
2023-04-22T15:35:08.989Z,27.01
2023-04-22T15:37:38.278Z,27.37
2023-04-22T15:40:07.873Z,26.77
2023-04-22T15:42:36.013Z,26.79
2023-04-22T15:45:04.372Z,26.71
2023-04-22T15:47:32.590Z,26.03
2023-04-22T15:50:06.218Z,26.25
2023-04-22T15:52:34.452Z,26.36
2023-04-22T15:55:03.728Z,26.37
2023-04-22T15:57:35.222Z,27.12
2023-04-22T16:00:10.885Z,27.48
2023-04-22T16:02:44.280Z,26.85
2023-04-22T16:05:13.937Z,26.85
2023-04-22T16:07:41.855Z,26.47
2023-04-22T16:10:12.125Z,26.07
2023-04-22T16:12:40.123Z,26.18
2023-04-22T16:15:09.506Z,26.32
2023-04-22T16:17:37.961Z,26.42
2023-04-22T16:20:07.323Z,26.38
2023-04-22T16:22:35.262Z,26.61
2023-04-22T16:25:03.266Z,26.24
2023-04-22T16:27:32.646Z,26.23
2023-04-22T16:30:01.030Z,26.34
2023-04-22T16:32:28.968Z,26.40
2023-04-22T16:34:56.976Z,26.87
2023-04-22T16:37:27.346Z,26.97
2023-04-22T16:39:55.385Z,27.16
2023-04-22T16:42:23.380Z,27.21
2023-04-22T16:44:52.672Z,27.87
2023-04-22T16:47:20.786Z,27.89
2023-04-22T16:49:48.746Z,27.90
2023-04-22T16:52:16.853Z,28.44
2023-04-22T16:54:44.835Z,28.80
2023-04-22T16:57:12.921Z,29.02
2023-04-22T16:59:41.041Z,28.99
2023-04-22T17:02:10.668Z,29.19
2023-04-22T17:04:38.620Z,29.30
2023-04-22T17:07:06.512Z,29.34
2023-04-22T17:09:34.396Z,29.34
2023-04-22T17:12:02.327Z,29.61
2023-04-22T17:14:31.001Z,29.94
2023-04-22T17:16:58.971Z,30.42
2023-04-22T17:19:28.359Z,30.83
2023-04-22T17:21:56.586Z,31.35
2023-04-22T17:24:24.856Z,31.89
2023-04-22T17:26:52.792Z,32.56
2023-04-22T17:29:21.673Z,32.57
2023-04-22T17:31:49.728Z,32.84
2023-04-22T17:34:17.675Z,33.29
2023-04-22T17:36:46.920Z,33.78
2023-04-22T17:39:14.954Z,34.32
2023-04-22T17:41:42.901Z,34.82
2023-04-22T17:44:11.276Z,35.20
2023-04-22T17:46:39.159Z,35.32
2023-04-22T17:49:06.973Z,35.95
2023-04-22T17:51:34.942Z,35.97
2023-04-22T17:54:05.236Z,36.41
2023-04-22T17:56:33.249Z,36.48
2023-04-22T17:59:01.199Z,36.83
2023-04-22T18:01:30.012Z,37.23
2023-04-22T18:03:57.967Z,37.69
2023-04-22T18:06:25.953Z,37.97
2023-04-22T18:08:53.962Z,38.12
2023-04-22T18:11:23.900Z,38.73
2023-04-22T18:13:51.884Z,39.36
2023-04-22T18:16:19.755Z,39.21
2023-04-22T18:18:47.610Z,39.47
2023-04-22T18:21:15.564Z,39.62
2023-04-22T18:23:43.484Z,40.00
2023-04-22T18:26:11.541Z,40.18
2023-04-22T18:28:41.199Z,40.22
2023-04-22T18:31:09.271Z,40.65
2023-04-22T18:33:37.475Z,40.85
2023-04-22T18:36:06.218Z,41.02
2023-04-22T18:38:34.204Z,40.99
2023-04-22T18:41:02.273Z,41.49
2023-04-22T18:43:30.568Z,41.90
2023-04-22T18:46:00.050Z,42.27
2023-04-22T18:48:28.030Z,42.27
2023-04-22T18:50:56.051Z,42.75
2023-04-22T18:53:23.939Z,42.52
2023-04-22T18:55:51.790Z,42.84
2023-04-22T18:58:21.410Z,42.99
2023-04-22T19:00:49.321Z,42.93
2023-04-22T19:03:19.444Z,43.37
2023-04-22T19:05:47.504Z,43.67
2023-04-22T19:08:15.305Z,43.26
2023-04-22T19:10:43.418Z,43.82
2023-04-22T19:13:22.368Z,43.81
2023-04-22T19:15:56.480Z,43.27
2023-04-22T19:18:25.968Z,43.14
2023-04-22T19:20:53.982Z,42.98
2023-04-22T19:23:21.864Z,42.76
2023-04-22T19:25:51.519Z,42.84
2023-04-22T19:28:19.394Z,42.98
2023-04-22T19:30:47.276Z,42.75
2023-04-22T19:33:15.656Z,42.66
2023-04-22T19:35:45.050Z,42.93
2023-04-22T19:38:16.304Z,43.09
2023-04-22T19:40:44.342Z,44.22
2023-04-22T19:43:12.328Z,44.41
2023-04-22T19:45:40.723Z,44.71
2023-04-22T19:48:09.637Z,45.49
2023-04-22T19:50:37.851Z,45.61
2023-04-22T19:53:07.938Z,45.60
2023-04-22T19:55:37.404Z,45.72
2023-04-22T19:58:06.802Z,46.07
2023-04-22T20:00:35.294Z,46.59
2023-04-22T20:03:04.313Z,46.93
2023-04-22T20:05:32.902Z,47.10
2023-04-22T20:08:01.874Z,47.37
2023-04-22T20:10:31.728Z,48.18
2023-04-22T20:12:59.870Z,47.93
2023-04-22T20:15:28.163Z,48.36
2023-04-22T20:17:56.362Z,48.32
2023-04-22T20:20:24.640Z,48.48
2023-04-22T20:22:54.744Z,48.34
2023-04-22T20:25:23.505Z,48.31
2023-04-22T20:27:54.170Z,47.61
2023-04-22T20:30:22.413Z,46.74
2023-04-22T20:32:50.563Z,47.27
2023-04-22T20:35:19.246Z,46.92
2023-04-22T20:37:48.569Z,46.93
2023-04-22T20:40:18.897Z,47.13
2023-04-22T20:42:46.980Z,47.22
2023-04-22T20:45:17.766Z,46.68
2023-04-22T20:47:46.142Z,47.00
2023-04-22T20:50:14.740Z,46.89
2023-04-22T20:52:43.327Z,47.02
2023-04-22T20:55:11.343Z,46.85
2023-04-22T20:57:39.234Z,47.37
2023-04-22T21:00:10.208Z,47.47
2023-04-22T21:02:40.969Z,47.09
2023-04-22T21:05:11.124Z,47.68
2023-04-22T21:07:40.574Z,47.58
2023-04-22T21:10:10.011Z,47.89
2023-04-22T21:12:39.129Z,48.34
2023-04-22T21:15:08.737Z,48.22
2023-04-22T21:17:39.835Z,48.48
2023-04-22T21:20:10.921Z,48.57
2023-04-22T21:22:41.851Z,48.86
2023-04-22T21:25:11.704Z,49.24
2023-04-22T21:27:40.785Z,49.23
2023-04-22T21:30:10.315Z,49.22
2023-04-22T21:32:40.590Z,48.82
2023-04-22T21:35:10.411Z,48.91
2023-04-22T21:37:38.280Z,49.08
2023-04-22T21:40:11.214Z,48.86
2023-04-22T21:42:39.113Z,49.20
2023-04-22T21:45:08.177Z,49.77
2023-04-22T21:47:36.060Z,50.09
2023-04-22T21:50:03.955Z,49.89
2023-04-22T21:52:33.392Z,49.90
2023-04-22T21:55:01.591Z,49.86
2023-04-22T21:57:30.193Z,49.85
2023-04-22T21:59:58.060Z,50.02
2023-04-22T22:02:26.937Z,50.39
2023-04-22T22:04:54.916Z,50.29
2023-04-22T22:07:22.876Z,50.24
2023-04-22T22:09:52.851Z,50.33
2023-04-22T22:12:20.778Z,50.14
2023-04-22T22:14:48.636Z,50.04
2023-04-22T22:17:17.449Z,49.96
2023-04-22T22:19:45.507Z,50.10
2023-04-22T22:22:13.395Z,50.00
2023-04-22T22:24:41.670Z,49.59
2023-04-22T22:27:11.041Z,49.70
2023-04-22T22:29:40.755Z,49.98
2023-04-22T22:32:08.996Z,50.16
2023-04-22T22:34:36.986Z,50.04
2023-04-22T22:37:05.281Z,50.29
2023-04-22T22:39:33.249Z,50.50
2023-04-22T22:42:01.830Z,50.52
2023-04-22T22:44:31.475Z,50.73
2023-04-22T22:46:59.493Z,50.79
2023-04-22T22:49:27.419Z,50.98
2023-04-22T22:51:55.531Z,50.94
2023-04-22T22:54:23.414Z,50.90
2023-04-22T22:56:51.358Z,51.29
2023-04-22T22:59:19.240Z,51.11
2023-04-22T23:01:48.713Z,51.21
2023-04-22T23:04:16.943Z,51.49
2023-04-22T23:06:45.104Z,51.39
2023-04-22T23:09:15.088Z,51.47
2023-04-22T23:11:43.090Z,51.92
2023-04-22T23:14:11.628Z,52.15
2023-04-22T23:16:39.530Z,52.07
2023-04-22T23:19:08.887Z,52.38
2023-04-22T23:21:37.587Z,52.56
2023-04-22T23:24:06.473Z,52.48
2023-04-22T23:26:36.120Z,52.59
2023-04-22T23:29:04.526Z,52.75
2023-04-22T23:31:33.995Z,52.73
2023-04-22T23:34:03.753Z,53.09
2023-04-22T23:36:36.374Z,52.92
2023-04-22T23:39:06.648Z,52.85
2023-04-22T23:41:34.905Z,53.20
2023-04-22T23:44:02.988Z,52.60
2023-04-22T23:46:31.011Z,52.85
2023-04-22T23:48:59.504Z,52.54
2023-04-22T23:51:28.310Z,52.00
2023-04-22T23:53:57.611Z,52.46
2023-04-22T23:56:26.496Z,52.15
2023-04-22T23:58:54.897Z,51.99
